createdAt,value
2022-09-23T00:01:15.935Z,100840.31
2022-09-23T00:03:47.387Z,100829.75
2022-09-23T00:06:22.802Z,100836.75
2022-09-23T00:08:50.475Z,100846.31
2022-09-23T00:11:20.395Z,100848.13
2022-09-23T00:13:49.500Z,100841.91
2022-09-23T00:16:20.655Z,100847.13
2022-09-23T00:18:49.540Z,100848.03
2022-09-23T00:21:18.067Z,100848.91
2022-09-23T00:23:45.053Z,100848.91
2022-09-23T00:26:15.907Z,100847.19
2022-09-23T00:28:43.708Z,100843.78
2022-09-23T00:31:19.273Z,100850.44
2022-09-23T00:33:47.021Z,100851.06
2022-09-23T00:36:16.574Z,100848.59
2022-09-23T00:38:45.276Z,100851.41
2022-09-23T00:41:15.719Z,100842.81
2022-09-23T00:43:44.342Z,100840.25
2022-09-23T00:46:20.641Z,100840.19
2022-09-23T00:48:50.271Z,100842.72
2022-09-23T00:51:23.482Z,100840.75
2022-09-23T00:53:51.798Z,100849.59
2022-09-23T00:56:21.765Z,100852.28
2022-09-23T00:58:50.584Z,100843.72
2022-09-23T01:01:19.365Z,100848.84
2022-09-23T01:03:46.886Z,100848.09
2022-09-23T01:06:14.244Z,100848.09
2022-09-23T01:08:44.252Z,100845.00
2022-09-23T01:11:33.889Z,100837.91
2022-09-23T01:14:06.863Z,100842.44
2022-09-23T01:17:09.427Z,100841.88
2022-09-23T01:19:58.209Z,100840.09
2022-09-23T01:22:28.180Z,100841.00
2022-09-23T01:25:08.575Z,100840.09
2022-09-23T01:28:09.651Z,100850.50
2022-09-23T01:30:48.911Z,100847.41
2022-09-23T01:33:44.025Z,100851.63
2022-09-23T01:36:33.901Z,100842.81
2022-09-23T01:39:16.987Z,100844.25
2022-09-23T01:42:07.258Z,100843.84
2022-09-23T01:44:43.172Z,100848.19
2022-09-23T01:47:35.627Z,100852.19
2022-09-23T01:50:28.448Z,100861.19
2022-09-23T01:52:58.320Z,100853.53
2022-09-23T01:55:31.115Z,100862.31
2022-09-23T01:58:07.479Z,100853.69
2022-09-23T02:00:43.868Z,100855.66
2022-09-23T02:03:26.990Z,100851.00
2022-09-23T02:06:04.608Z,100856.09
2022-09-23T02:09:02.853Z,100856.91
2022-09-23T02:11:36.413Z,100858.31
2022-09-23T02:14:11.140Z,100866.19
2022-09-23T02:16:47.673Z,100860.94
2022-09-23T02:19:40.355Z,100855.75
2022-09-23T02:22:13.074Z,100853.91
2022-09-23T02:24:40.225Z,100847.09
2022-09-23T02:27:44.510Z,100838.56
2022-09-23T02:30:11.426Z,100840.28
2022-09-23T02:33:04.323Z,100843.69
2022-09-23T02:35:49.112Z,100843.50
2022-09-23T02:38:15.923Z,100841.53
2022-09-23T02:41:04.819Z,100837.94
2022-09-23T02:43:40.174Z,100841.34
2022-09-23T02:46:07.561Z,100843.88
2022-09-23T02:48:41.423Z,100847.16
2022-09-23T02:51:10.074Z,100852.31
2022-09-23T02:53:38.283Z,100864.47
2022-09-23T02:56:20.310Z,100864.28
2022-09-23T02:58:49.416Z,100859.19
2022-09-23T03:01:50.258Z,100860.91
2022-09-23T03:04:31.771Z,100861.84
2022-09-23T03:07:16.878Z,100859.06
2022-09-23T03:09:58.631Z,100869.25
2022-09-23T03:12:38.447Z,100865.72
2022-09-23T03:15:33.681Z,100872.16
2022-09-23T03:18:18.214Z,100864.41
2022-09-23T03:20:49.586Z,100869.66
2022-09-23T03:23:25.344Z,100869.59
2022-09-23T03:25:55.858Z,100878.69
2022-09-23T03:28:25.606Z,100873.47
2022-09-23T03:30:54.679Z,100871.69
2022-09-23T03:33:28.658Z,100873.34
2022-09-23T03:36:24.816Z,100871.66
2022-09-23T03:38:59.358Z,100873.63
2022-09-23T03:41:34.330Z,100875.31
2022-09-23T03:44:02.385Z,100877.09
2022-09-23T03:46:30.319Z,100870.00
2022-09-23T03:49:02.835Z,100869.28
2022-09-23T03:51:29.744Z,100874.59
2022-09-23T03:53:56.596Z,100873.69
2022-09-23T03:56:23.665Z,100877.22
2022-09-23T03:58:50.615Z,100889.56
2022-09-23T04:01:17.583Z,100884.13
2022-09-23T04:03:44.558Z,100882.47
2022-09-23T04:06:11.526Z,100893.03
2022-09-23T04:08:38.419Z,100884.28
2022-09-23T04:11:05.554Z,100893.13
2022-09-23T04:13:32.594Z,100881.59
2022-09-23T04:15:59.790Z,100893.03
2022-09-23T04:18:26.970Z,100892.19
2022-09-23T04:20:59.057Z,100895.63
2022-09-23T04:23:26.871Z,100904.59
2022-09-23T04:25:54.117Z,100897.59
2022-09-23T04:28:21.571Z,100898.47
2022-09-23T04:30:49.200Z,100900.19
2022-09-23T04:33:17.003Z,100900.22
2022-09-23T04:35:44.112Z,100898.41
2022-09-23T04:38:12.765Z,100907.19
2022-09-23T04:40:40.061Z,100907.22
2022-09-23T04:43:10.553Z,100907.19
2022-09-23T04:45:39.783Z,100907.19
2022-09-23T04:48:06.742Z,100907.22
2022-09-23T04:50:34.314Z,100914.22
2022-09-23T04:53:01.974Z,100910.25
2022-09-23T04:55:29.218Z,100909.50
2022-09-23T04:57:56.134Z,100905.59
2022-09-23T05:00:26.695Z,100895.56
2022-09-23T05:02:53.542Z,100899.34
2022-09-23T05:05:21.227Z,100894.66
2022-09-23T05:07:48.647Z,100897.75
2022-09-23T05:10:15.997Z,100885.31
2022-09-23T05:12:42.991Z,100880.56
2022-09-23T05:15:10.231Z,100891.50
2022-09-23T05:17:37.536Z,100885.78
2022-09-23T05:20:05.107Z,100890.31
2022-09-23T05:22:32.008Z,100889.56
2022-09-23T05:25:00.384Z,100886.13
2022-09-23T05:27:27.499Z,100889.81
2022-09-23T05:29:54.378Z,100904.59
2022-09-23T05:32:21.955Z,100892.16
2022-09-23T05:34:48.890Z,100902.22
2022-09-23T05:37:15.854Z,100900.66
2022-09-23T05:39:42.730Z,100911.22
2022-09-23T05:42:10.237Z,100904.31
2022-09-23T05:44:37.183Z,100913.13
2022-09-23T05:47:04.278Z,100924.97
2022-09-23T05:49:55.133Z,100916.16
2022-09-23T05:52:18.036Z,100932.09
2022-09-23T05:54:44.890Z,100933.00
2022-09-23T05:57:12.015Z,100941.97
2022-09-23T05:59:39.255Z,100946.03
2022-09-23T06:02:06.595Z,100941.00
2022-09-23T06:04:33.719Z,100947.47
2022-09-23T06:07:03.471Z,100943.44
2022-09-23T06:09:35.594Z,100956.94
2022-09-23T06:12:04.841Z,100963.72
2022-09-23T06:14:31.858Z,100966.19
2022-09-23T06:16:58.885Z,100967.00
2022-09-23T06:19:25.782Z,100970.94
2022-09-23T06:21:52.923Z,100962.09
2022-09-23T06:24:22.271Z,100966.25
2022-09-23T06:26:51.767Z,100966.34
2022-09-23T06:29:18.661Z,100957.00
2022-09-23T06:31:45.657Z,100966.06
2022-09-23T06:34:14.623Z,100966.56
2022-09-23T06:36:45.560Z,100969.63
2022-09-23T06:39:16.228Z,100978.84
2022-09-23T06:41:45.341Z,100977.25
2022-09-23T06:44:14.092Z,100979.97
2022-09-23T06:46:41.168Z,100980.34
2022-09-23T06:49:08.153Z,100968.50
2022-09-23T06:51:35.126Z,100972.81
2022-09-23T06:54:02.117Z,100973.75
2022-09-23T06:56:32.405Z,100964.09
2022-09-23T06:59:01.862Z,100971.81
2022-09-23T07:01:28.903Z,100967.13
2022-09-23T07:03:55.829Z,100967.28
2022-09-23T07:06:22.670Z,100967.34
2022-09-23T07:08:51.277Z,100967.00
2022-09-23T07:11:22.616Z,100962.38
2022-09-23T07:13:49.763Z,100957.63
2022-09-23T07:16:16.737Z,100960.16
2022-09-23T07:18:45.164Z,100957.16
2022-09-23T07:21:15.587Z,100962.22
2022-09-23T07:23:47.657Z,100962.41
2022-09-23T07:26:19.450Z,100952.06
2022-09-23T07:28:46.671Z,100956.44
2022-09-23T07:31:23.379Z,100951.50
2022-09-23T07:34:01.336Z,100950.13
2022-09-23T07:36:32.809Z,100950.06
2022-09-23T07:39:03.616Z,100962.25
2022-09-23T07:41:32.648Z,100952.09
2022-09-23T07:44:00.680Z,100950.56
2022-09-23T07:46:31.017Z,100945.53
2022-09-23T07:48:58.006Z,100951.00
2022-09-23T07:51:36.399Z,100943.78
2022-09-23T07:54:08.881Z,100944.09
2022-09-23T07:56:37.493Z,100945.94
2022-09-23T07:59:05.885Z,100936.44
2022-09-23T08:01:35.710Z,100931.56
2022-09-23T08:04:09.131Z,100946.72
2022-09-23T08:06:36.916Z,100946.38
2022-09-23T08:09:04.378Z,100949.81
2022-09-23T08:11:33.002Z,100944.25
2022-09-23T08:14:00.043Z,100941.75
2022-09-23T08:16:27.292Z,100945.97
2022-09-23T08:18:54.302Z,100938.25
2022-09-23T08:21:22.219Z,100932.47
2022-09-23T08:23:50.018Z,100939.69
2022-09-23T08:26:21.756Z,100945.00
2022-09-23T08:28:49.785Z,100937.38
2022-09-23T08:31:16.862Z,100929.81
2022-09-23T08:33:43.895Z,100928.28
2022-09-23T08:36:10.753Z,100928.09
2022-09-23T08:38:37.648Z,100916.31
2022-09-23T08:41:37.590Z,100917.88
2022-09-23T08:44:13.225Z,100915.75
2022-09-23T08:46:46.748Z,100912.09
2022-09-23T08:49:23.612Z,100905.59
2022-09-23T08:51:54.907Z,100905.91
2022-09-23T08:54:22.066Z,100911.56
2022-09-23T08:56:52.404Z,100909.03
2022-09-23T08:59:30.718Z,100911.31
2022-09-23T09:02:01.489Z,100907.34
2022-09-23T09:04:44.610Z,100902.00
2022-09-23T09:10:06.348Z,100900.81
2022-09-23T09:12:49.947Z,100905.06
2022-09-23T09:15:24.325Z,100903.09
2022-09-23T09:18:04.189Z,100900.00
2022-09-23T09:20:59.592Z,100889.53
2022-09-23T09:23:56.910Z,100885.22
2022-09-23T09:26:31.106Z,100900.03
2022-09-23T09:29:30.836Z,100904.00
2022-09-23T09:31:57.721Z,100896.22
2022-09-23T09:34:29.561Z,100902.84
2022-09-23T09:37:14.825Z,100905.56
2022-09-23T09:39:41.670Z,100896.28
2022-09-23T09:42:20.317Z,100908.75
2022-09-23T09:44:54.314Z,100891.63
2022-09-23T09:47:48.653Z,100899.78
2022-09-23T09:50:22.179Z,100887.53
2022-09-23T09:52:49.173Z,100887.81
2022-09-23T09:55:28.153Z,100894.38
2022-09-23T09:58:05.285Z,100896.72
2022-09-23T10:00:42.970Z,100900.50
2022-09-23T10:03:13.397Z,100903.56
2022-09-23T10:05:46.162Z,100903.47
2022-09-23T10:08:28.328Z,100898.97
2022-09-23T10:11:18.059Z,100896.44
2022-09-23T10:14:12.737Z,100894.16
2022-09-23T10:16:42.200Z,100896.06
2022-09-23T10:19:22.915Z,100894.41
2022-09-23T10:21:56.922Z,100892.25
2022-09-23T10:24:33.078Z,100890.06
2022-09-23T10:27:04.461Z,100886.41
2022-09-23T10:29:50.943Z,100869.03
2022-09-23T10:32:30.200Z,100868.31
2022-09-23T10:35:13.729Z,100862.84
2022-09-23T10:37:46.662Z,100867.91
2022-09-23T10:40:44.782Z,100865.41
2022-09-23T10:43:30.256Z,100862.22
2022-09-23T10:46:22.021Z,100869.19
2022-09-23T10:48:51.790Z,100867.78
2022-09-23T10:51:33.362Z,100863.91
2022-09-23T10:54:28.135Z,100856.84
2022-09-23T10:57:01.496Z,100860.94
2022-09-23T10:59:36.245Z,100860.28
2022-09-23T11:02:40.065Z,100851.22
2022-09-23T11:05:18.874Z,100843.97
2022-09-23T11:07:51.325Z,100847.94
2022-09-23T11:10:35.430Z,100855.22
2022-09-23T11:13:26.572Z,100852.59
2022-09-23T11:15:59.535Z,100848.84
2022-09-23T11:18:58.441Z,100857.50
2022-09-23T11:21:49.895Z,100842.59
2022-09-23T11:24:28.212Z,100839.06
2022-09-23T11:27:26.124Z,100841.09
2022-09-23T11:30:02.006Z,100845.72
2022-09-23T11:35:45.461Z,100832.38
2022-09-23T11:38:42.448Z,100839.34
2022-09-23T11:41:20.304Z,100840.50
2022-09-23T11:44:09.991Z,100841.66
2022-09-23T11:46:45.390Z,100843.19
2022-09-23T11:49:27.527Z,100850.28
2022-09-23T11:52:08.223Z,100846.22
2022-09-23T11:54:42.987Z,100850.25
2022-09-23T11:57:24.468Z,100861.03
2022-09-23T12:00:00.601Z,100872.22
2022-09-23T12:03:05.980Z,100894.38
2022-09-23T12:05:48.885Z,100881.09
2022-09-23T12:08:39.466Z,100879.16
2022-09-23T12:11:29.466Z,100881.13
2022-09-23T12:14:23.882Z,100875.78
2022-09-23T12:17:01.004Z,100873.88
2022-09-23T12:19:31.077Z,100863.19
2022-09-23T12:22:09.014Z,100859.13
2022-09-23T12:24:57.288Z,100859.31
2022-09-23T12:27:30.243Z,100855.72
2022-09-23T12:30:02.803Z,100852.88
2022-09-23T12:32:31.122Z,100847.34
2022-09-23T12:34:58.816Z,100851.94
2022-09-23T12:37:30.000Z,100855.34
2022-09-23T12:40:01.927Z,100850.03
2022-09-23T12:42:31.311Z,100858.38
2022-09-23T12:45:35.011Z,100853.50
2022-09-23T12:48:25.714Z,100856.72
2022-09-23T12:51:04.644Z,100851.84
2022-09-23T12:53:34.573Z,100846.72
2022-09-23T12:56:16.796Z,100851.84
2022-09-23T12:58:43.663Z,100845.41
2022-09-23T13:01:20.073Z,100846.53
2022-09-23T13:04:09.093Z,100855.00
2022-09-23T13:07:06.425Z,100856.19
2022-09-23T13:09:41.063Z,100860.72
2022-09-23T13:12:24.899Z,100866.72
2022-09-23T13:14:55.237Z,100861.03
2022-09-23T13:17:33.695Z,100876.59
2022-09-23T13:20:35.000Z,100870.06
2022-09-23T13:23:20.662Z,100864.47
2022-09-23T13:25:48.847Z,100858.56
2022-09-23T13:28:34.208Z,100867.81
2022-09-23T13:31:07.026Z,100861.69
2022-09-23T13:33:46.217Z,100861.94
2022-09-23T13:36:16.529Z,100865.44
2022-09-23T13:38:46.213Z,100866.34
2022-09-23T13:41:28.785Z,100866.28
2022-09-23T13:43:59.132Z,100867.34
2022-09-23T13:46:43.285Z,100866.06
2022-09-23T13:49:34.163Z,100870.91
2022-09-23T13:52:02.240Z,100861.97
2022-09-23T13:54:38.582Z,100871.41
2022-09-23T13:57:05.462Z,100871.13
2022-09-23T13:59:53.602Z,100859.25
2022-09-23T14:02:20.809Z,100859.03
2022-09-23T14:04:47.789Z,100859.03
2022-09-23T14:07:16.849Z,100853.69
2022-09-23T14:09:48.828Z,100855.56
2022-09-23T14:12:21.970Z,100857.38
2022-09-23T14:14:51.780Z,100851.25
2022-09-23T14:17:22.993Z,100846.13
2022-09-23T14:19:51.011Z,100857.50
2022-09-23T14:22:29.699Z,100851.94
2022-09-23T14:24:57.622Z,100849.38
2022-09-23T14:27:30.926Z,100846.13
2022-09-23T14:29:59.054Z,100843.25
2022-09-23T14:32:28.807Z,100839.09
2022-09-23T14:35:04.604Z,100831.28
2022-09-23T14:37:58.958Z,100831.28
2022-09-23T14:40:31.811Z,100831.22
2022-09-23T14:43:16.888Z,100825.91
2022-09-23T14:45:51.222Z,100839.75
2022-09-23T14:48:24.471Z,100838.22
2022-09-23T14:51:02.797Z,100831.41
2022-09-23T14:53:43.763Z,100836.72
2022-09-23T14:56:22.313Z,100839.66
2022-09-23T14:59:00.123Z,100837.91
2022-09-23T15:01:33.218Z,100837.97
2022-09-23T15:04:15.633Z,100840.72
2022-09-23T15:06:51.488Z,100834.72
2022-09-23T15:09:25.043Z,100837.25
2022-09-23T15:11:54.129Z,100837.56
2022-09-23T15:14:37.206Z,100835.13
2022-09-23T15:17:13.622Z,100830.59
2022-09-23T15:19:40.773Z,100837.31
2022-09-23T15:22:10.037Z,100831.72
2022-09-23T15:24:36.875Z,100824.34
2022-09-23T15:27:11.676Z,100827.94
2022-09-23T15:29:38.931Z,100829.06
2022-09-23T15:32:08.600Z,100832.09
2022-09-23T15:34:36.145Z,100836.00
2022-09-23T15:37:03.244Z,100831.91
2022-09-23T15:39:36.127Z,100835.31
2022-09-23T15:42:03.624Z,100850.16
2022-09-23T15:44:30.663Z,100841.72
2022-09-23T15:47:01.261Z,100839.78
2022-09-23T15:49:34.174Z,100844.06
2022-09-23T15:52:02.202Z,100846.88
2022-09-23T15:54:30.050Z,100847.19
2022-09-23T15:56:56.955Z,100848.97
2022-09-23T15:59:24.270Z,100843.47
2022-09-23T16:01:52.950Z,100843.19
2022-09-23T16:04:19.924Z,100841.56
2022-09-23T16:06:48.415Z,100845.09
2022-09-23T16:09:15.822Z,100850.41
2022-09-23T16:11:46.391Z,100849.84
2022-09-23T16:14:15.910Z,100852.34
2022-09-23T16:16:45.155Z,100856.66
2022-09-23T16:19:12.586Z,100857.56
2022-09-23T16:21:41.068Z,100860.13
2022-09-23T16:24:18.996Z,100868.88
2022-09-23T16:26:47.547Z,100871.22
2022-09-23T16:29:14.843Z,100878.16
2022-09-23T16:31:41.905Z,100874.47
2022-09-23T16:34:08.833Z,100883.88
2022-09-23T16:36:42.034Z,100890.38
2022-09-23T16:39:12.575Z,100892.53
2022-09-23T16:41:40.166Z,100898.50
2022-09-23T16:44:08.426Z,100908.16
2022-09-23T16:46:35.437Z,100917.53
2022-09-23T16:49:02.605Z,100909.78
2022-09-23T16:51:38.268Z,100916.25
2022-09-23T16:54:13.258Z,100912.41
2022-09-23T16:56:44.463Z,100919.31
2022-09-23T16:59:13.299Z,100920.16
2022-09-23T17:01:58.661Z,100922.66
2022-09-23T17:04:25.653Z,100930.16
2022-09-23T17:06:53.372Z,100937.25
2022-09-23T17:09:30.274Z,100937.09
2022-09-23T17:12:27.904Z,100932.44
2022-09-23T17:14:54.876Z,100941.97
2022-09-23T17:17:22.389Z,100942.28
2022-09-23T17:19:49.322Z,100946.69
2022-09-23T17:22:16.228Z,100954.13
2022-09-23T17:24:43.251Z,100950.56
2022-09-23T17:27:10.162Z,100948.91
2022-09-23T17:29:37.115Z,100950.75
2022-09-23T17:32:05.313Z,100956.38
2022-09-23T17:34:33.527Z,100955.75
2022-09-23T17:37:00.814Z,100958.41
2022-09-23T17:39:27.690Z,100958.69
2022-09-23T17:41:57.358Z,100952.59
2022-09-23T17:44:24.486Z,100964.34
2022-09-23T17:46:52.255Z,100959.03
2022-09-23T17:49:19.274Z,100962.13
2022-09-23T17:51:46.325Z,100957.84
2022-09-23T17:54:15.119Z,100962.31
2022-09-23T17:56:42.871Z,100964.81
2022-09-23T17:59:12.833Z,100957.97
2022-09-23T18:01:39.850Z,100959.56
2022-09-23T18:04:07.304Z,100962.63
2022-09-23T18:06:37.137Z,100960.06
2022-09-23T18:09:06.735Z,100962.81
2022-09-23T18:11:37.169Z,100958.59
2022-09-23T18:14:07.748Z,100967.50
2022-09-23T18:16:36.931Z,100965.03
2022-09-23T18:19:04.750Z,100964.66
2022-09-23T18:21:38.096Z,100966.34
2022-09-23T18:26:52.963Z,100963.94
2022-09-23T18:29:20.034Z,100954.25
2022-09-23T18:31:49.339Z,100961.16
2022-09-23T18:34:17.222Z,100960.66
2022-09-23T18:36:44.810Z,100955.41
2022-09-23T18:39:12.090Z,100956.94
2022-09-23T18:41:39.676Z,100959.75
2022-09-23T18:44:06.780Z,100956.59
2022-09-23T18:46:33.865Z,100955.06
2022-09-23T18:49:19.370Z,100954.22
2022-09-23T18:51:57.292Z,100953.44
2022-09-23T18:54:26.385Z,100952.47
2022-09-23T18:56:53.494Z,100958.66
2022-09-23T18:59:23.959Z,100951.50
2022-09-23T19:01:51.419Z,100953.25
2022-09-23T19:04:20.559Z,100949.88
2022-09-23T19:06:48.183Z,100954.28
2022-09-23T19:09:16.777Z,100954.28
2022-09-23T19:11:44.510Z,100952.53
2022-09-23T19:14:12.679Z,100953.25
2022-09-23T19:16:40.862Z,100953.19
2022-09-23T19:19:08.534Z,100953.00
2022-09-23T19:21:36.323Z,100960.06
2022-09-23T19:24:07.615Z,100951.22
2022-09-23T19:26:37.661Z,100956.50
2022-09-23T19:29:08.186Z,100961.69
2022-09-23T19:31:40.212Z,100954.56
2022-09-23T19:34:23.947Z,100955.34
2022-09-23T19:36:51.590Z,100960.63
2022-09-23T19:39:23.714Z,100968.72
2022-09-23T19:41:52.439Z,100966.06
2022-09-23T19:44:20.343Z,100952.66
2022-09-23T19:46:55.016Z,100964.97
2022-09-23T19:49:24.837Z,100959.69
2022-09-23T19:51:55.511Z,100952.69
2022-09-23T19:54:23.597Z,100952.69
2022-09-23T19:56:50.735Z,100956.50
2022-09-23T19:59:19.207Z,100957.03
2022-09-23T20:01:47.845Z,100959.94
2022-09-23T20:04:15.963Z,100956.44
2022-09-23T20:06:43.477Z,100961.97
2022-09-23T20:09:10.353Z,100964.41
2022-09-23T20:11:37.377Z,100959.44
2022-09-23T20:14:06.451Z,100964.53
2022-09-23T20:16:36.944Z,100974.03
2022-09-23T20:19:05.791Z,100968.75
2022-09-23T20:21:33.876Z,100961.06
2022-09-23T20:24:01.911Z,100969.75
2022-09-23T20:26:47.493Z,100973.06
2022-09-23T20:29:14.619Z,100973.13
2022-09-23T20:31:41.843Z,100977.72
2022-09-23T20:34:10.783Z,100977.00
2022-09-23T20:36:40.177Z,100979.78
2022-09-23T20:39:07.307Z,100977.19
2022-09-23T20:41:37.903Z,100980.63
2022-09-23T20:44:12.696Z,100982.25
2022-09-23T20:46:48.327Z,100966.41
2022-09-23T20:49:17.316Z,100968.09
2022-09-23T20:51:44.669Z,100964.56
2022-09-23T20:54:12.346Z,100961.84
2022-09-23T20:56:39.466Z,100953.91
2022-09-23T20:59:06.420Z,100942.34
2022-09-23T21:01:35.326Z,100946.06
2022-09-23T21:04:05.149Z,100950.44
2022-09-23T21:06:34.600Z,100946.88
2022-09-23T21:09:01.836Z,100941.56
2022-09-23T21:11:29.306Z,100951.16
2022-09-23T21:13:56.716Z,100940.59
2022-09-23T21:16:24.674Z,100945.00
2022-09-23T21:18:52.424Z,100946.69
2022-09-23T21:21:22.090Z,100945.88
2022-09-23T21:23:50.277Z,100948.34
2022-09-23T21:26:25.339Z,100947.19
2022-09-23T21:28:55.488Z,100942.78
2022-09-23T21:31:26.160Z,100943.22
2022-09-23T21:34:04.011Z,100943.13
2022-09-23T21:36:34.649Z,100951.09
2022-09-23T21:39:05.540Z,100948.34
2022-09-23T21:41:32.948Z,100948.25
2022-09-23T21:44:00.402Z,100947.81
2022-09-23T21:46:28.451Z,100954.13
2022-09-23T21:48:58.985Z,100950.59
2022-09-23T21:51:28.342Z,100951.41
2022-09-23T21:53:57.522Z,100951.31
2022-09-23T21:56:33.204Z,100951.09
2022-09-23T21:59:00.082Z,100953.38
2022-09-23T22:01:36.430Z,100952.03
2022-09-23T22:04:13.420Z,100953.97
2022-09-23T22:06:40.631Z,100961.25
2022-09-23T22:09:11.407Z,100961.41
2022-09-23T22:11:57.997Z,100959.75
2022-09-23T22:14:26.200Z,100964.19
2022-09-23T22:16:57.908Z,100968.53
2022-09-23T22:19:28.142Z,100964.16
2022-09-23T22:21:56.006Z,100969.44
2022-09-23T22:24:23.292Z,100968.59
2022-09-23T22:26:50.649Z,100967.75
2022-09-23T22:29:37.241Z,100964.13
2022-09-23T22:32:29.367Z,100971.16
2022-09-23T22:34:56.952Z,100971.13
2022-09-23T22:37:30.587Z,100965.88
2022-09-23T22:39:57.683Z,100967.66
2022-09-23T22:42:25.060Z,100967.56
2022-09-23T22:44:52.240Z,100959.56
2022-09-23T22:47:20.512Z,100961.19
2022-09-23T22:49:48.415Z,100952.34
2022-09-23T22:52:21.052Z,100955.00
2022-09-23T22:54:48.281Z,100954.16
2022-09-23T22:57:15.748Z,100958.59
2022-09-23T22:59:48.205Z,100957.53
2022-09-23T23:02:19.691Z,100950.50
2022-09-23T23:04:47.762Z,100955.91
2022-09-23T23:07:21.114Z,100963.31
2022-09-23T23:09:50.214Z,100963.31
2022-09-23T23:12:20.267Z,100962.38
2022-09-23T23:14:48.650Z,100958.94
2022-09-23T23:17:15.720Z,100963.38
2022-09-23T23:19:42.620Z,100960.69
2022-09-23T23:22:09.533Z,100960.56
2022-09-23T23:24:36.523Z,100953.56
2022-09-23T23:27:03.476Z,100958.91
2022-09-23T23:29:30.411Z,100949.31
2022-09-23T23:31:57.357Z,100949.31
2022-09-23T23:34:24.419Z,100957.22
2022-09-23T23:36:57.263Z,100955.47
2022-09-23T23:39:25.354Z,100954.59
2022-09-23T23:41:56.597Z,100951.97
2022-09-23T23:44:25.583Z,100961.63
2022-09-23T23:46:54.120Z,100955.50
2022-09-23T23:49:21.694Z,100956.41
2022-09-23T23:51:48.770Z,100949.38
2022-09-23T23:54:15.748Z,100954.59
2022-09-23T23:56:43.183Z,100951.09
2022-09-23T23:59:10.130Z,100959.00
